createdAt,value
2024-04-22T00:01:51.784Z,60.00
2024-04-22T00:03:54.273Z,59.83
2024-04-22T00:05:56.657Z,59.92
2024-04-22T00:07:59.179Z,60.24
2024-04-22T00:10:01.589Z,60.17
2024-04-22T00:12:04.550Z,59.86
2024-04-22T00:14:09.710Z,60.02
2024-04-22T00:16:12.149Z,60.08
2024-04-22T00:18:14.748Z,59.86
2024-04-22T00:20:17.288Z,59.79
2024-04-22T00:22:19.807Z,59.55
2024-04-22T00:24:22.242Z,60.12
2024-04-22T00:26:24.688Z,60.27
2024-04-22T00:28:27.291Z,60.28
2024-04-22T00:30:29.741Z,60.18
2024-04-22T00:32:32.121Z,60.27
2024-04-22T00:34:34.681Z,60.58
2024-04-22T00:36:37.184Z,60.76
2024-04-22T00:38:39.900Z,60.60
2024-04-22T00:40:42.513Z,60.82
2024-04-22T00:42:47.926Z,60.80
2024-04-22T00:44:50.357Z,61.22
2024-04-22T00:46:52.918Z,61.19
2024-04-22T00:48:55.735Z,61.29
2024-04-22T00:50:58.972Z,61.46
2024-04-22T00:53:03.792Z,61.21
2024-04-22T00:55:08.549Z,60.92
2024-04-22T00:57:12.150Z,61.16
2024-04-22T00:59:14.794Z,61.27
2024-04-22T01:01:18.305Z,60.99
2024-04-22T01:03:21.070Z,61.10
2024-04-22T01:05:24.056Z,61.39
2024-04-22T01:07:28.259Z,60.81
2024-04-22T01:09:30.952Z,60.68
2024-04-22T01:11:33.748Z,60.90
2024-04-22T01:13:36.232Z,61.09
2024-04-22T01:15:38.777Z,61.40
2024-04-22T01:17:44.877Z,61.64
2024-04-22T01:19:48.810Z,61.87
2024-04-22T01:21:51.955Z,61.67
2024-04-22T01:23:56.475Z,61.45
2024-04-22T01:26:00.781Z,61.55
2024-04-22T01:28:05.754Z,61.78
2024-04-22T01:30:08.876Z,61.85
2024-04-22T01:32:11.268Z,61.83
2024-04-22T01:34:13.908Z,61.55
2024-04-22T01:36:16.359Z,61.68
2024-04-22T01:38:18.739Z,61.86
2024-04-22T01:40:21.367Z,62.14
2024-04-22T01:42:24.373Z,62.09
2024-04-22T01:44:27.208Z,62.00
2024-04-22T01:46:29.758Z,61.55
2024-04-22T01:48:32.500Z,61.49
2024-04-22T01:50:34.942Z,60.94
2024-04-22T01:52:37.543Z,60.90
2024-04-22T01:54:41.163Z,61.17
2024-04-22T01:56:43.996Z,61.60
2024-04-22T01:58:46.539Z,61.90
2024-04-22T02:00:48.983Z,61.86
2024-04-22T02:02:51.441Z,61.46
2024-04-22T02:04:53.993Z,61.35
2024-04-22T02:06:56.420Z,61.34
2024-04-22T02:08:58.870Z,61.65
2024-04-22T02:11:01.468Z,61.77
2024-04-22T02:13:04.476Z,61.83
2024-04-22T02:15:06.962Z,61.86
2024-04-22T02:17:11.807Z,62.12
2024-04-22T02:19:14.263Z,61.77
2024-04-22T02:21:16.834Z,61.17
2024-04-22T02:23:19.232Z,60.96
2024-04-22T02:25:21.651Z,60.92
2024-04-22T02:27:24.047Z,61.09
2024-04-22T02:29:26.413Z,61.47
2024-04-22T02:31:28.887Z,61.70
2024-04-22T02:33:31.486Z,61.92
2024-04-22T02:35:35.058Z,62.29
2024-04-22T02:37:37.570Z,62.29
2024-04-22T02:39:40.177Z,62.47
2024-04-22T02:41:42.911Z,62.50
2024-04-22T02:43:47.633Z,62.68
2024-04-22T02:45:50.049Z,62.74
2024-04-22T02:47:52.559Z,63.06
2024-04-22T02:49:55.051Z,63.21
2024-04-22T02:51:57.449Z,63.37
2024-04-22T02:53:59.853Z,63.04
2024-04-22T02:56:02.245Z,62.55
2024-04-22T02:58:04.931Z,62.31
2024-04-22T03:00:07.960Z,62.24
2024-04-22T03:02:11.555Z,62.09
2024-04-22T03:04:14.299Z,61.81
2024-04-22T03:06:16.992Z,61.57
2024-04-22T03:08:19.398Z,61.54
2024-04-22T03:10:21.889Z,61.47
2024-04-22T03:12:24.345Z,61.57
2024-04-22T03:14:26.845Z,61.78
2024-04-22T03:16:29.300Z,62.05
2024-04-22T03:18:31.984Z,62.32
2024-04-22T03:20:37.740Z,62.63
2024-04-22T03:22:41.161Z,62.72
2024-04-22T03:24:44.197Z,62.72
2024-04-22T03:26:46.556Z,62.83
2024-04-22T03:28:48.934Z,63.00
2024-04-22T03:30:51.330Z,63.04
2024-04-22T03:32:54.113Z,63.24
2024-04-22T03:34:56.500Z,63.36
2024-04-22T03:36:59.045Z,63.47
2024-04-22T03:39:01.572Z,63.07
2024-04-22T03:41:04.576Z,62.54
2024-04-22T03:43:07.167Z,62.77
2024-04-22T03:45:10.666Z,63.13
2024-04-22T03:47:31.507Z,62.96
2024-04-22T03:49:52.769Z,63.00
2024-04-22T03:51:55.255Z,63.15
2024-04-22T03:53:58.838Z,63.39
2024-04-22T03:56:01.225Z,63.58
2024-04-22T03:58:03.933Z,63.45
2024-04-22T04:00:07.124Z,63.38
2024-04-22T04:02:14.384Z,63.68
2024-04-22T04:04:17.066Z,63.89
2024-04-22T04:06:19.617Z,64.08
2024-04-22T04:08:22.025Z,63.99
2024-04-22T04:10:24.681Z,63.93
2024-04-22T04:12:27.146Z,63.51
2024-04-22T04:14:29.539Z,63.44
2024-04-22T04:16:32.205Z,63.71
2024-04-22T04:18:34.831Z,63.06
2024-04-22T04:20:38.079Z,62.67
2024-04-22T04:22:40.880Z,62.56
2024-04-22T04:24:43.419Z,62.36
2024-04-22T04:26:45.794Z,62.42
2024-04-22T04:28:51.486Z,62.77
2024-04-22T04:31:01.561Z,63.15
2024-04-22T04:33:04.385Z,63.25
2024-04-22T04:35:08.531Z,63.16
2024-04-22T04:37:11.584Z,63.22
2024-04-22T04:39:14.348Z,63.24
2024-04-22T04:41:17.699Z,63.49
2024-04-22T04:43:20.166Z,63.35
2024-04-22T04:45:22.543Z,63.67
2024-04-22T04:47:25.155Z,63.73
2024-04-22T04:49:27.748Z,63.69
2024-04-22T04:51:30.273Z,64.04
2024-04-22T04:53:32.756Z,64.45
2024-04-22T04:55:35.387Z,64.58
2024-04-22T04:57:37.849Z,64.52
2024-04-22T04:59:40.242Z,64.46
2024-04-22T05:01:43.657Z,64.32
2024-04-22T05:03:46.844Z,64.46
2024-04-22T05:05:59.974Z,64.59
2024-04-22T05:08:04.510Z,64.62
2024-04-22T05:10:07.686Z,64.75
2024-04-22T05:12:10.234Z,64.41
2024-04-22T05:14:12.801Z,64.47
2024-04-22T05:16:15.273Z,64.68
2024-04-22T05:18:17.802Z,64.65
2024-04-22T05:20:20.533Z,64.75
2024-04-22T05:22:23.028Z,65.04
2024-04-22T05:24:29.758Z,65.00
2024-04-22T05:26:32.361Z,65.03
2024-04-22T05:28:34.901Z,65.39
2024-04-22T05:30:37.425Z,65.51
2024-04-22T05:32:40.142Z,65.65
2024-04-22T05:35:01.187Z,65.73
2024-04-22T05:37:03.978Z,65.80
2024-04-22T05:39:06.332Z,65.76
2024-04-22T05:41:09.910Z,65.99
2024-04-22T05:43:12.358Z,66.44
2024-04-22T05:45:14.922Z,66.40
2024-04-22T05:47:17.320Z,66.26
2024-04-22T05:49:19.889Z,66.25
2024-04-22T05:51:22.377Z,65.94
2024-04-22T05:53:24.774Z,65.97
2024-04-22T05:55:27.232Z,66.05
2024-04-22T05:57:29.782Z,65.84
2024-04-22T05:59:32.241Z,65.82
2024-04-22T06:01:34.884Z,65.50
2024-04-22T06:03:37.933Z,65.42
2024-04-22T06:05:40.397Z,64.99
2024-04-22T06:07:42.977Z,65.02
2024-04-22T06:09:45.488Z,64.81
2024-04-22T06:11:57.614Z,64.87
2024-04-22T06:14:10.399Z,64.74
2024-04-22T06:16:12.964Z,64.50
2024-04-22T06:18:15.759Z,64.62
2024-04-22T06:20:18.390Z,64.70
2024-04-22T06:22:20.822Z,64.60
2024-04-22T06:24:23.221Z,64.55
2024-04-22T06:26:25.694Z,64.46
2024-04-22T06:28:28.178Z,64.24
2024-04-22T06:30:30.598Z,64.22
2024-04-22T06:32:36.147Z,64.21
2024-04-22T06:34:38.734Z,64.51
2024-04-22T06:36:42.280Z,64.37
2024-04-22T06:38:44.898Z,64.34
2024-04-22T06:40:47.692Z,64.37
2024-04-22T06:42:50.290Z,64.19
2024-04-22T06:44:52.657Z,64.15
2024-04-22T06:46:56.139Z,64.05
2024-04-22T06:48:58.645Z,63.77
2024-04-22T06:51:01.683Z,63.68
2024-04-22T06:53:04.257Z,63.56
2024-04-22T06:55:06.767Z,63.37
2024-04-22T06:57:09.197Z,63.34
2024-04-22T06:59:11.807Z,63.29
2024-04-22T07:01:23.958Z,62.94
2024-04-22T07:03:35.321Z,62.89
2024-04-22T07:05:38.032Z,62.51
2024-04-22T07:07:40.575Z,62.27
2024-04-22T07:09:43.166Z,62.22
2024-04-22T07:11:45.658Z,62.28
2024-04-22T07:13:48.066Z,62.17
2024-04-22T07:15:50.854Z,62.00
2024-04-22T07:17:53.570Z,62.06
2024-04-22T07:19:56.247Z,62.05
2024-04-22T07:22:02.536Z,62.00
2024-04-22T07:24:06.231Z,61.83
2024-04-22T07:26:09.394Z,61.68
2024-04-22T07:28:12.675Z,61.43
2024-04-22T07:30:17.764Z,61.48
2024-04-22T07:32:20.549Z,61.40
2024-04-22T07:34:23.358Z,61.36
2024-04-22T07:36:40.536Z,61.56
2024-04-22T07:38:44.308Z,61.41
2024-04-22T07:40:47.796Z,61.10
2024-04-22T07:42:50.285Z,61.07
2024-04-22T07:44:52.756Z,60.93
2024-04-22T07:46:55.241Z,60.68
2024-04-22T07:48:57.805Z,60.28
2024-04-22T07:51:04.019Z,60.01
2024-04-22T07:53:07.436Z,59.90
2024-04-22T07:55:11.898Z,59.53
2024-04-22T07:57:14.671Z,59.18
2024-04-22T07:59:17.327Z,58.96
2024-04-22T08:01:19.988Z,58.80
2024-04-22T08:03:22.746Z,58.68
2024-04-22T08:05:25.459Z,58.56
2024-04-22T08:07:28.162Z,58.50
2024-04-22T08:09:31.307Z,58.45
2024-04-22T08:11:34.150Z,58.34
2024-04-22T08:13:36.589Z,58.15
2024-04-22T08:15:39.732Z,58.09
2024-04-22T08:17:42.252Z,57.86
2024-04-22T08:19:44.823Z,57.95
2024-04-22T08:21:48.449Z,57.65
2024-04-22T08:23:50.866Z,57.56
2024-04-22T08:25:54.019Z,57.44
2024-04-22T08:27:56.513Z,57.46
2024-04-22T08:30:02.198Z,57.41
2024-04-22T08:32:05.290Z,57.18
2024-04-22T08:34:08.376Z,57.30
2024-04-22T08:36:11.932Z,57.23
2024-04-22T08:38:16.494Z,57.27
2024-04-22T08:40:24.746Z,56.92
2024-04-22T08:42:29.143Z,56.67
2024-04-22T08:44:31.580Z,56.17
2024-04-22T08:46:34.704Z,55.96
2024-04-22T08:48:38.544Z,55.81
2024-04-22T08:50:42.254Z,55.93
2024-04-22T08:52:51.651Z,55.59
2024-04-22T08:54:58.743Z,55.31
2024-04-22T08:57:01.643Z,55.31
2024-04-22T08:59:04.303Z,55.27
2024-04-22T09:01:08.038Z,55.36
2024-04-22T09:03:10.881Z,55.50
2024-04-22T09:05:14.923Z,55.46
2024-04-22T09:07:18.810Z,55.22
2024-04-22T09:09:35.906Z,54.91
2024-04-22T09:12:08.232Z,54.62
2024-04-22T09:14:16.962Z,54.67
2024-04-22T09:16:19.810Z,54.46
2024-04-22T09:18:24.055Z,54.24
2024-04-22T09:20:34.670Z,54.06
2024-04-22T09:22:37.167Z,53.98
2024-04-22T09:24:39.641Z,53.87
2024-04-22T09:26:42.820Z,54.03
2024-04-22T09:28:46.709Z,53.93
2024-04-22T09:30:54.676Z,53.93
2024-04-22T09:33:00.614Z,53.66
2024-04-22T09:35:16.666Z,53.49
2024-04-22T09:37:23.615Z,53.21
2024-04-22T09:39:28.052Z,53.15
2024-04-22T09:41:31.631Z,52.75
2024-04-22T09:43:38.485Z,52.65
2024-04-22T09:45:42.173Z,52.49
2024-04-22T09:47:47.336Z,52.37
2024-04-22T09:49:52.332Z,52.39
2024-04-22T09:51:58.071Z,52.36
2024-04-22T09:54:00.832Z,51.77
2024-04-22T09:56:08.479Z,51.79
2024-04-22T09:58:12.351Z,51.38
2024-04-22T10:00:17.098Z,51.34
2024-04-22T10:02:19.768Z,51.30
2024-04-22T10:04:22.858Z,51.38
2024-04-22T10:06:27.168Z,50.85
2024-04-22T10:08:30.105Z,50.91
2024-04-22T10:10:32.663Z,50.13
2024-04-22T10:12:35.411Z,50.06
2024-04-22T10:14:37.917Z,50.10
2024-04-22T10:16:41.389Z,49.47
2024-04-22T10:18:48.484Z,48.76
2024-04-22T10:20:52.463Z,48.77
2024-04-22T10:22:55.367Z,48.81
2024-04-22T10:24:59.491Z,48.75
2024-04-22T10:27:11.572Z,48.64
2024-04-22T10:29:15.587Z,48.28
2024-04-22T10:31:20.948Z,48.25
2024-04-22T10:33:23.444Z,48.14
2024-04-22T10:35:26.260Z,48.21
2024-04-22T10:37:29.100Z,48.20
2024-04-22T10:39:32.227Z,48.04
2024-04-22T10:41:35.766Z,48.04
2024-04-22T10:43:39.628Z,47.89
2024-04-22T10:45:42.248Z,47.91
2024-04-22T10:47:46.712Z,47.79
2024-04-22T10:49:52.375Z,47.68
2024-04-22T10:51:54.936Z,47.57
2024-04-22T10:53:57.471Z,47.63
2024-04-22T10:56:00.076Z,47.41
2024-04-22T10:58:03.122Z,47.02
2024-04-22T11:00:07.142Z,46.72
2024-04-22T11:02:13.143Z,46.97
2024-04-22T11:04:17.033Z,46.86
2024-04-22T11:06:21.048Z,46.80
2024-04-22T11:08:23.642Z,46.88
2024-04-22T11:10:34.505Z,47.11
2024-04-22T11:12:43.879Z,47.25
2024-04-22T11:14:46.465Z,47.05
2024-04-22T11:16:58.113Z,46.43
2024-04-22T11:19:07.054Z,47.09
2024-04-22T11:21:10.024Z,46.97
2024-04-22T11:23:12.562Z,46.76
2024-04-22T11:25:15.137Z,46.75
2024-04-22T11:27:17.944Z,46.51
2024-04-22T11:29:20.850Z,46.43
2024-04-22T11:31:23.528Z,46.04
2024-04-22T11:33:29.492Z,46.04
2024-04-22T11:35:38.492Z,45.99
2024-04-22T11:37:41.513Z,45.89
2024-04-22T11:39:44.740Z,46.08
2024-04-22T11:41:47.950Z,46.12
2024-04-22T11:43:50.576Z,45.91
2024-04-22T11:45:53.316Z,45.79
2024-04-22T11:47:55.928Z,45.88
2024-04-22T11:49:58.455Z,45.70
2024-04-22T11:52:00.935Z,45.79
2024-04-22T11:54:05.851Z,46.13
2024-04-22T11:56:09.277Z,45.78
2024-04-22T11:58:11.917Z,45.61
2024-04-22T12:00:14.484Z,45.63
2024-04-22T12:02:18.261Z,45.45
2024-04-22T12:04:21.059Z,46.01
2024-04-22T12:06:24.299Z,45.75
2024-04-22T12:08:26.762Z,45.53
2024-04-22T12:10:29.559Z,45.58
2024-04-22T12:12:32.693Z,45.43
2024-04-22T12:14:36.045Z,45.11
2024-04-22T12:16:38.578Z,45.24
2024-04-22T12:18:41.172Z,45.41
2024-04-22T12:20:43.717Z,45.69
2024-04-22T12:22:46.157Z,45.48
2024-04-22T12:24:48.938Z,45.07
2024-04-22T12:26:51.519Z,45.23
2024-04-22T12:28:53.926Z,45.37
2024-04-22T12:30:56.521Z,45.26
2024-04-22T12:32:59.052Z,45.67
2024-04-22T12:35:03.622Z,45.72
2024-04-22T12:37:06.316Z,45.86
2024-04-22T12:39:09.001Z,45.73
2024-04-22T12:41:11.711Z,45.75
2024-04-22T12:43:14.216Z,45.89
2024-04-22T12:45:17.232Z,45.78
2024-04-22T12:47:38.423Z,45.34
2024-04-22T12:49:59.629Z,45.27
2024-04-22T12:52:02.222Z,44.87
2024-04-22T12:54:05.077Z,44.54
2024-04-22T12:56:07.632Z,44.47
2024-04-22T12:58:10.999Z,44.29
2024-04-22T13:00:14.240Z,44.45
2024-04-22T13:02:16.765Z,44.43
2024-04-22T13:04:21.009Z,44.13
2024-04-22T13:06:23.643Z,44.06
2024-04-22T13:08:26.053Z,43.94
2024-04-22T13:10:28.599Z,43.84
2024-04-22T13:12:31.267Z,43.74
2024-04-22T13:14:33.707Z,43.46
2024-04-22T13:16:36.206Z,44.45
2024-04-22T13:18:38.704Z,43.67
2024-04-22T13:20:41.587Z,43.58
2024-04-22T13:22:44.124Z,43.52
2024-04-22T13:24:46.801Z,43.43
2024-04-22T13:26:49.300Z,43.26
2024-04-22T13:28:51.964Z,42.90
2024-04-22T13:30:56.402Z,42.21
2024-04-22T13:33:00.325Z,41.74
2024-04-22T13:35:03.380Z,41.54
2024-04-22T13:37:05.903Z,41.22
2024-04-22T13:39:08.423Z,41.39
2024-04-22T13:41:11.268Z,41.37
2024-04-22T13:43:13.863Z,41.49
2024-04-22T13:45:16.558Z,41.22
2024-04-22T13:47:19.055Z,40.87
2024-04-22T13:49:21.470Z,40.76
2024-04-22T13:51:23.920Z,40.65
2024-04-22T13:53:31.689Z,40.11
2024-04-22T13:55:35.280Z,39.78
2024-04-22T13:57:39.532Z,39.45
2024-04-22T13:59:42.335Z,39.53
2024-04-22T14:01:44.856Z,39.26
2024-04-22T14:03:48.742Z,39.53
2024-04-22T14:05:51.231Z,39.66
2024-04-22T14:07:54.711Z,40.20
2024-04-22T14:09:57.263Z,40.45
2024-04-22T14:11:59.867Z,40.53
2024-04-22T14:14:02.500Z,40.64
2024-04-22T14:16:06.114Z,40.88
2024-04-22T14:18:09.227Z,40.68
2024-04-22T14:20:11.782Z,41.02
2024-04-22T14:22:14.277Z,41.07
2024-04-22T14:24:17.499Z,41.23
2024-04-22T14:26:20.570Z,41.32
2024-04-22T14:28:25.238Z,41.31
2024-04-22T14:30:27.779Z,41.39
2024-04-22T14:32:30.463Z,40.95
2024-04-22T14:34:33.011Z,40.82
2024-04-22T14:36:35.556Z,40.95
2024-04-22T14:38:38.014Z,41.23
2024-04-22T14:40:40.475Z,40.86
2024-04-22T14:42:42.946Z,40.70
2024-04-22T14:44:45.844Z,40.64
2024-04-22T14:46:49.433Z,40.26
2024-04-22T14:48:53.046Z,39.53
2024-04-22T14:50:55.684Z,39.44
2024-04-22T14:52:59.017Z,38.93
2024-04-22T14:55:01.559Z,38.51
2024-04-22T14:57:04.421Z,37.78
2024-04-22T14:59:07.501Z,37.51
2024-04-22T15:01:10.224Z,37.94
2024-04-22T15:03:14.865Z,38.11
2024-04-22T15:05:18.063Z,37.70
2024-04-22T15:07:21.383Z,37.89
2024-04-22T15:09:25.718Z,37.41
2024-04-22T15:11:30.272Z,37.12
2024-04-22T15:13:33.127Z,36.88
2024-04-22T15:15:35.594Z,36.94
2024-04-22T15:17:38.108Z,36.54
2024-04-22T15:19:44.085Z,35.95
2024-04-22T15:21:46.932Z,35.81
2024-04-22T15:23:52.109Z,35.34
2024-04-22T15:25:54.812Z,35.28
2024-04-22T15:27:57.324Z,34.59
2024-04-22T15:29:59.798Z,34.45
2024-04-22T15:32:03.125Z,34.63
2024-04-22T15:34:05.910Z,34.39
2024-04-22T15:36:08.659Z,34.78
2024-04-22T15:38:11.293Z,35.00
2024-04-22T15:40:13.886Z,34.86
2024-04-22T15:42:16.757Z,34.71
2024-04-22T15:44:19.131Z,35.01
2024-04-22T15:46:21.850Z,35.15
2024-04-22T15:48:24.436Z,35.66
2024-04-22T15:50:27.088Z,35.34
2024-04-22T15:52:29.526Z,35.81
2024-04-22T15:54:32.100Z,36.14
2024-04-22T15:56:35.917Z,35.92
2024-04-22T15:58:41.467Z,35.93
2024-04-22T16:00:43.998Z,35.81
2024-04-22T16:02:46.753Z,35.83
2024-04-22T16:04:50.980Z,35.80
2024-04-22T16:06:53.487Z,35.55
2024-04-22T16:08:56.158Z,35.63
2024-04-22T16:10:58.848Z,35.51
2024-04-22T16:13:01.569Z,35.45
2024-04-22T16:15:05.465Z,35.55
2024-04-22T16:17:07.873Z,35.57
2024-04-22T16:19:11.872Z,35.37
2024-04-22T16:21:17.376Z,35.50
2024-04-22T16:23:20.397Z,35.58
2024-04-22T16:25:25.891Z,35.61
2024-04-22T16:27:28.590Z,35.65
2024-04-22T16:29:31.004Z,35.39
2024-04-22T16:31:33.537Z,35.19
2024-04-22T16:33:38.826Z,35.38
2024-04-22T16:35:41.805Z,34.86
2024-04-22T16:37:44.281Z,34.71
2024-04-22T16:39:46.805Z,34.61
2024-04-22T16:41:49.361Z,34.31
2024-04-22T16:43:51.853Z,33.87
2024-04-22T16:45:54.278Z,33.51
2024-04-22T16:47:57.716Z,32.55
2024-04-22T16:50:03.029Z,31.91
2024-04-22T16:52:06.587Z,30.88
2024-04-22T16:54:08.996Z,30.20
2024-04-22T16:56:11.525Z,29.29
2024-04-22T16:58:14.020Z,28.73
2024-04-22T17:00:16.982Z,28.60
2024-04-22T17:02:19.800Z,29.08
2024-04-22T17:04:22.589Z,29.57
2024-04-22T17:06:25.066Z,29.95
2024-04-22T17:08:27.925Z,30.40
2024-04-22T17:10:30.527Z,30.63
2024-04-22T17:12:33.609Z,31.16
2024-04-22T17:14:35.967Z,31.27
2024-04-22T17:16:38.592Z,31.63
2024-04-22T17:18:41.078Z,32.05
2024-04-22T17:20:52.814Z,32.50
2024-04-22T17:22:55.440Z,32.62
2024-04-22T17:24:57.986Z,32.69
2024-04-22T17:27:00.763Z,32.66
2024-04-22T17:29:03.353Z,33.03
2024-04-22T17:31:07.151Z,32.97
2024-04-22T17:33:10.132Z,33.33
2024-04-22T17:35:12.611Z,33.57
2024-04-22T17:37:18.898Z,33.67
2024-04-22T17:39:21.505Z,33.91
2024-04-22T17:41:24.045Z,34.07
2024-04-22T17:43:26.568Z,34.25
2024-04-22T17:45:29.223Z,34.57
2024-04-22T17:47:31.838Z,34.96
2024-04-22T17:49:34.942Z,35.17
2024-04-22T17:51:37.628Z,35.49
2024-04-22T17:53:40.407Z,35.60
2024-04-22T17:55:44.453Z,35.65
2024-04-22T17:57:47.447Z,36.03
2024-04-22T17:59:50.198Z,36.16
2024-04-22T18:01:53.851Z,36.34
2024-04-22T18:03:59.248Z,36.82
2024-04-22T18:06:03.517Z,37.07
2024-04-22T18:08:11.457Z,37.11
2024-04-22T18:10:18.181Z,37.22
2024-04-22T18:12:20.788Z,37.71
2024-04-22T18:14:25.944Z,37.81
2024-04-22T18:16:29.633Z,38.08
2024-04-22T18:18:33.470Z,38.27
2024-04-22T18:20:37.116Z,38.39
2024-04-22T18:22:44.460Z,38.66
2024-04-22T18:24:56.003Z,38.78
2024-04-22T18:27:01.658Z,39.05
2024-04-22T18:29:04.543Z,39.06
2024-04-22T18:31:06.940Z,39.35
2024-04-22T18:33:09.465Z,39.47
2024-04-22T18:35:12.002Z,39.64
2024-04-22T18:37:15.393Z,39.93
2024-04-22T18:39:19.132Z,40.33
2024-04-22T18:41:22.038Z,40.39
2024-04-22T18:43:25.586Z,40.55
2024-04-22T18:45:28.761Z,40.71
2024-04-22T18:47:31.269Z,40.96
2024-04-22T18:49:34.066Z,41.23
2024-04-22T18:51:36.604Z,41.42
2024-04-22T18:53:40.410Z,41.40
2024-04-22T18:55:43.929Z,41.64
2024-04-22T18:57:48.341Z,41.90
2024-04-22T18:59:52.028Z,41.88
2024-04-22T19:01:55.961Z,42.11
2024-04-22T19:03:58.508Z,42.39
2024-04-22T19:06:03.103Z,42.46
2024-04-22T19:08:07.497Z,42.63
2024-04-22T19:10:11.976Z,42.59
2024-04-22T19:12:16.187Z,42.77
2024-04-22T19:14:23.236Z,42.73
2024-04-22T19:16:27.575Z,42.87
2024-04-22T19:18:31.267Z,42.81
2024-04-22T19:20:35.247Z,42.84
2024-04-22T19:22:39.153Z,43.01
2024-04-22T19:24:44.127Z,43.31
2024-04-22T19:26:47.701Z,43.58
2024-04-22T19:28:51.088Z,43.94
2024-04-22T19:30:56.175Z,44.20
2024-04-22T19:32:58.707Z,44.44
2024-04-22T19:35:01.241Z,44.34
2024-04-22T19:37:04.273Z,44.42
2024-04-22T19:39:07.852Z,44.44
2024-04-22T19:41:10.352Z,44.79
2024-04-22T19:43:12.873Z,44.87
2024-04-22T19:45:16.496Z,44.80
2024-04-22T19:47:19.237Z,44.84
2024-04-22T19:49:22.590Z,44.94
2024-04-22T19:51:25.035Z,45.21
2024-04-22T19:53:27.449Z,45.38
2024-04-22T19:55:29.945Z,45.38
2024-04-22T19:57:33.715Z,45.31
2024-04-22T19:59:38.275Z,45.60
2024-04-22T20:01:40.931Z,45.70
2024-04-22T20:03:43.503Z,45.76
2024-04-22T20:05:46.134Z,45.92
2024-04-22T20:07:48.707Z,45.93
2024-04-22T20:09:51.113Z,46.00
2024-04-22T20:11:53.524Z,46.13
2024-04-22T20:13:55.965Z,46.11
2024-04-22T20:16:15.476Z,46.36
2024-04-22T20:18:28.949Z,46.40
2024-04-22T20:20:31.701Z,46.56
2024-04-22T20:22:34.158Z,46.54
2024-04-22T20:24:36.768Z,46.76
2024-04-22T20:26:39.257Z,46.76
2024-04-22T20:28:41.940Z,46.82
2024-04-22T20:30:44.431Z,47.08
2024-04-22T20:32:49.216Z,47.16
2024-04-22T20:34:51.865Z,47.27
2024-04-22T20:36:54.317Z,47.41
2024-04-22T20:38:57.478Z,47.58
2024-04-22T20:41:01.737Z,47.48
2024-04-22T20:43:04.534Z,47.72
2024-04-22T20:45:09.205Z,47.75
2024-04-22T20:47:12.828Z,47.86
2024-04-22T20:49:19.746Z,48.05
2024-04-22T20:51:22.179Z,48.19
2024-04-22T20:53:25.662Z,48.30
2024-04-22T20:55:28.380Z,48.35
2024-04-22T20:57:30.900Z,48.47
2024-04-22T20:59:33.309Z,48.44
2024-04-22T21:01:39.071Z,48.69
2024-04-22T21:03:41.568Z,48.55
2024-04-22T21:05:45.415Z,48.73
2024-04-22T21:07:47.880Z,48.63
2024-04-22T21:09:51.067Z,48.77
2024-04-22T21:11:53.544Z,48.85
2024-04-22T21:14:00.750Z,48.68
2024-04-22T21:16:04.918Z,48.86
2024-04-22T21:18:08.138Z,48.81
2024-04-22T21:20:10.769Z,48.87
2024-04-22T21:22:13.184Z,48.84
2024-04-22T21:24:15.630Z,48.84
2024-04-22T21:26:17.993Z,49.08
2024-04-22T21:28:20.451Z,48.99
2024-04-22T21:30:24.931Z,49.20
2024-04-22T21:32:27.679Z,49.23
2024-04-22T21:34:30.155Z,49.39
2024-04-22T21:36:32.685Z,49.67
2024-04-22T21:38:35.111Z,49.60
2024-04-22T21:40:37.623Z,49.58
2024-04-22T21:42:40.276Z,49.79
2024-04-22T21:44:42.663Z,49.92
2024-04-22T21:46:45.161Z,49.95
2024-04-22T21:48:47.676Z,50.05
2024-04-22T21:50:51.706Z,50.01
2024-04-22T21:52:54.172Z,50.13
2024-04-22T21:54:57.057Z,50.35
2024-04-22T21:57:37.048Z,50.42
2024-04-22T22:00:17.144Z,50.56
2024-04-22T22:03:01.440Z,50.78
2024-04-22T22:05:42.175Z,51.12
2024-04-22T22:07:44.691Z,51.32
2024-04-22T22:09:49.033Z,51.21
2024-04-22T22:11:51.996Z,51.37
2024-04-22T22:13:54.899Z,51.52
2024-04-22T22:15:57.350Z,51.51
2024-04-22T22:18:02.092Z,51.62
2024-04-22T22:20:07.136Z,51.82
2024-04-22T22:22:10.063Z,51.86
2024-04-22T22:24:12.916Z,52.26
2024-04-22T22:26:15.404Z,52.15
2024-04-22T22:28:17.848Z,52.08
2024-04-22T22:30:20.318Z,52.18
2024-04-22T22:32:23.033Z,51.97
2024-04-22T22:34:25.871Z,52.10
2024-04-22T22:36:30.115Z,52.53
2024-04-22T22:38:32.590Z,52.75
2024-04-22T22:40:35.164Z,52.91
2024-04-22T22:42:37.773Z,52.96
2024-04-22T22:44:40.164Z,52.95
2024-04-22T22:46:42.700Z,53.19
2024-04-22T22:48:45.508Z,53.38
2024-04-22T22:50:48.229Z,53.42
2024-04-22T22:52:50.643Z,53.48
2024-04-22T22:54:53.067Z,53.34
2024-04-22T22:56:57.555Z,53.09
2024-04-22T22:59:00.109Z,53.00
2024-04-22T23:01:03.107Z,53.04
2024-04-22T23:03:05.797Z,53.02
2024-04-22T23:05:08.270Z,53.23
2024-04-22T23:07:10.661Z,52.97
2024-04-22T23:09:13.840Z,52.87
2024-04-22T23:11:16.348Z,53.00
2024-04-22T23:13:18.887Z,53.06
2024-04-22T23:15:21.429Z,52.80
2024-04-22T23:17:23.910Z,52.95
2024-04-22T23:19:26.431Z,53.01
2024-04-22T23:21:29.399Z,53.07
2024-04-22T23:23:32.370Z,53.28
2024-04-22T23:25:34.858Z,53.32
2024-04-22T23:27:39.519Z,53.41
2024-04-22T23:29:42.129Z,53.55
2024-04-22T23:31:44.736Z,53.53
2024-04-22T23:33:47.384Z,53.67
2024-04-22T23:35:50.010Z,53.57
2024-04-22T23:37:52.698Z,53.67
2024-04-22T23:39:55.358Z,53.53
2024-04-22T23:41:57.889Z,53.48
2024-04-22T23:44:00.664Z,53.41
2024-04-22T23:46:03.260Z,53.51
2024-04-22T23:48:06.664Z,53.46
2024-04-22T23:50:09.240Z,53.41
2024-04-22T23:52:11.824Z,53.42
2024-04-22T23:54:14.617Z,53.54
2024-04-22T23:56:17.066Z,53.68
2024-04-22T23:58:19.508Z,53.80
